Time;durP1;ratioP1;P1;durP2;ratioP2;P2;SDS_P1;SDS_P2;PMS_P1;PMS_P2;Temp;Humidity;BMP_temperature;BMP_pressure;BME280_temperature;BME280_humidity;BME280_pressure;Samples;Min_cycle;Max_cycle;Signal;HPM_P1;HPM_P2
2021/06/25 00:00:32;;;;;;;6.07;5.60;;;;;;;;;;5017536;28;20842;-58
2021/06/25 00:02:58;;;;;;;5.90;5.40;;;;;;;;;;5017242;28;20523;-59
2021/06/25 00:05:23;;;;;;;7.00;6.00;;;;;;;;;;5017506;28;20730;-59
2021/06/25 00:07:48;;;;;;;6.67;6.03;;;;;;;;;;5016959;28;20226;-59
2021/06/25 00:10:14;;;;;;;5.50;5.00;;;;;;;;;;5017212;28;20305;-59
2021/06/25 00:12:39;;;;;;;9.03;6.40;;;;;;;;;;5017374;28;20231;-59
2021/06/25 00:15:06;;;;;;;7.00;6.17;;;;;;;;;;5016989;28;20297;-59
2021/06/25 00:17:32;;;;;;;9.00;6.47;;;;;;;;;;5017322;28;20226;-59
2021/06/25 00:19:57;;;;;;;6.30;5.80;;;;;;;;;;5016329;28;20572;-59
2021/06/25 00:22:24;;;;;;;7.33;6.83;;;;;;;;;;5017029;28;20729;-59
2021/06/25 00:24:49;;;;;;;8.10;7.30;;;;;;;;;;5016787;28;20250;-59
2021/06/25 00:27:14;;;;;;;6.53;6.03;;;;;;;;;;5017059;28;20981;-58
2021/06/25 00:29:39;;;;;;;6.53;6.03;;;;;;;;;;5017086;28;20226;-59
2021/06/25 00:32:05;;;;;;;7.03;6.20;;;;;;;;;;5016637;28;20230;-58
2021/06/25 00:34:30;;;;;;;7.73;7.00;;;;;;;;;;5017035;28;20305;-59
2021/06/25 00:36:56;;;;;;;7.80;7.13;;;;;;;;;;5016713;28;20686;-59
2021/06/25 00:39:21;;;;;;;8.10;7.50;;;;;;;;;;5016804;28;20222;-59
2021/06/25 00:41:46;;;;;;;8.27;6.83;;;;;;;;;;5016326;28;20564;-60
2021/06/25 00:44:16;;;;;;;10.37;7.13;;;;;;;;;;5016864;28;20222;-59
2021/06/25 00:46:42;;;;;;;8.17;7.40;;;;;;;;;;5016499;28;20230;-59
2021/06/25 00:49:07;;;;;;;8.13;7.43;;;;;;;;;;5016821;28;20457;-59
2021/06/25 00:51:33;;;;;;;6.77;6.20;;;;;;;;;;5016563;28;20247;-60
2021/06/25 00:53:58;;;;;;;7.20;6.60;;;;;;;;;;5016216;28;20241;-59
2021/06/25 00:56:23;;;;;;;11.00;6.50;;;;;;;;;;5016363;28;20218;-59
2021/06/25 00:58:52;;;;;;;7.40;6.70;;;;;;;;;;5016059;28;20218;-59
2021/06/25 01:01:17;;;;;;;9.50;8.53;;;;;;;;;;5016462;28;20218;-59
2021/06/25 01:03:43;;;;;;;7.53;6.83;;;;;;;;;;5015369;28;20470;-59
2021/06/25 01:06:09;;;;;;;7.57;6.97;;;;;;;;;;5016021;28;20755;-59
2021/06/25 01:08:37;;;;;;;7.80;7.10;;;;;;;;;;5016197;28;20223;-59
2021/06/25 01:11:02;;;;;;;7.77;6.87;;;;;;;;;;5015801;28;20472;-60
2021/06/25 01:13:27;;;;;;;6.77;6.27;;;;;;;;;;5016064;28;20556;-59
2021/06/25 01:15:52;;;;;;;7.17;6.57;;;;;;;;;;5014981;28;20230;-58
2021/06/25 01:18:18;;;;;;;7.97;7.20;;;;;;;;;;5016222;28;20358;-59
2021/06/25 01:20:43;;;;;;;7.87;7.27;;;;;;;;;;5015733;28;20238;-59
2021/06/25 01:23:08;;;;;;;7.37;6.77;;;;;;;;;;5015575;28;20661;-59
2021/06/25 01:25:36;;;;;;;8.10;7.40;;;;;;;;;;5016261;28;20214;-59
2021/06/25 01:28:04;;;;;;;7.40;6.83;;;;;;;;;;5014719;28;20305;-59
2021/06/25 01:30:31;;;;;;;8.50;7.63;;;;;;;;;;5015734;28;20612;-59
2021/06/25 01:32:58;;;;;;;8.10;7.30;;;;;;;;;;5015293;28;20474;-59
2021/06/25 01:35:23;;;;;;;6.57;6.07;;;;;;;;;;5015852;28;20461;-59
2021/06/25 01:37:49;;;;;;;7.60;6.90;;;;;;;;;;5015338;28;20947;-59
2021/06/25 01:40:16;;;;;;;7.03;6.43;;;;;;;;;;5015449;28;20292;-59
2021/06/25 01:42:42;;;;;;;7.23;6.60;;;;;;;;;;5015635;28;20222;-59
2021/06/25 01:45:13;;;;;;;6.97;6.27;;;;;;;;;;5015224;28;20544;-59
2021/06/25 01:47:40;;;;;;;7.97;7.17;;;;;;;;;;5015644;28;20531;-58
2021/06/25 01:50:12;;;;;;;7.97;7.37;;;;;;;;;;5014012;28;20554;-59
2021/06/25 01:52:42;;;;;;;9.33;7.10;;;;;;;;;;5015282;28;20466;-59
2021/06/25 01:55:07;;;;;;;8.87;8.07;;;;;;;;;;5014993;28;20450;-58
2021/06/25 01:57:33;;;;;;;8.43;7.73;;;;;;;;;;5015380;28;20457;-58
2021/06/25 01:59:59;;;;;;;7.40;6.80;;;;;;;;;;5014857;28;20571;-59
2021/06/25 02:02:24;;;;;;;8.10;7.30;;;;;;;;;;5015408;28;20206;-60
2021/06/25 02:04:49;;;;;;;8.00;7.40;;;;;;;;;;5013840;28;20519;-59
2021/06/25 02:07:14;;;;;;;7.00;6.40;;;;;;;;;;5015139;28;20290;-60
2021/06/25 02:09:40;;;;;;;7.30;6.70;;;;;;;;;;5015043;28;20229;-59
2021/06/25 02:12:05;;;;;;;7.23;6.63;;;;;;;;;;5014794;28;20306;-59
2021/06/25 02:14:31;;;;;;;7.00;6.40;;;;;;;;;;5014279;28;20222;-60
2021/06/25 02:16:57;;;;;;;6.77;6.27;;;;;;;;;;5014518;28;20215;-59
2021/06/25 02:19:22;;;;;;;6.30;5.70;;;;;;;;;;5014885;28;20226;-58
2021/06/25 02:21:47;;;;;;;7.43;6.57;;;;;;;;;;5014322;28;20472;-60
2021/06/25 02:24:13;;;;;;;7.87;7.17;;;;;;;;;;5014916;28;20211;-59
2021/06/25 02:26:39;;;;;;;6.40;5.90;;;;;;;;;;5015041;28;20547;-59
2021/06/25 02:29:04;;;;;;;6.30;5.80;;;;;;;;;;5014470;28;20477;-59
2021/06/25 02:31:29;;;;;;;7.70;6.83;;;;;;;;;;5014819;28;20673;-60
2021/06/25 02:33:54;;;;;;;6.73;6.10;;;;;;;;;;5014470;28;20233;-60
2021/06/25 02:36:20;;;;;;;6.63;5.97;;;;;;;;;;5014950;28;20647;-60
2021/06/25 02:38:45;;;;;;;6.20;5.63;;;;;;;;;;5014837;28;20219;-59
2021/06/25 02:41:10;;;;;;;6.70;5.93;;;;;;;;;;5014033;28;20309;-59
2021/06/25 02:43:35;;;;;;;6.00;5.47;;;;;;;;;;5013669;28;20218;-59
2021/06/25 02:46:01;;;;;;;6.10;5.50;;;;;;;;;;5014191;28;20218;-58
2021/06/25 02:48:26;;;;;;;7.07;6.37;;;;;;;;;;5014496;28;20229;-59
2021/06/25 02:50:51;;;;;;;6.20;5.60;;;;;;;;;;5014207;28;20260;-59
2021/06/25 02:53:16;;;;;;;5.30;4.80;;;;;;;;;;5014237;28;20308;-60
2021/06/25 02:55:51;;;;;;;6.30;5.80;;;;;;;;;;5014287;28;20294;-59
2021/06/25 02:58:18;;;;;;;6.07;5.50;;;;;;;;;;5014252;28;20213;-58
2021/06/25 03:00:43;;;;;;;6.17;5.57;;;;;;;;;;5014666;28;20535;-59
2021/06/25 03:03:08;;;;;;;6.30;5.70;;;;;;;;;;5013982;28;20843;-59
2021/06/25 03:05:33;;;;;;;6.23;5.63;;;;;;;;;;5014431;28;20214;-59
2021/06/25 03:07:59;;;;;;;6.57;5.97;;;;;;;;;;5013671;28;20612;-59
2021/06/25 03:10:24;;;;;;;6.63;6.10;;;;;;;;;;5014052;28;20233;-59
2021/06/25 03:12:49;;;;;;;7.33;5.83;;;;;;;;;;5014217;28;20309;-59
2021/06/25 03:15:15;;;;;;;7.00;6.30;;;;;;;;;;5012964;28;20214;-58
2021/06/25 03:17:40;;;;;;;7.20;6.50;;;;;;;;;;5014001;28;20276;-58
2021/06/25 03:20:06;;;;;;;6.33;5.83;;;;;;;;;;5013472;28;20624;-59
2021/06/25 03:22:31;;;;;;;5.87;5.20;;;;;;;;;;5014315;28;20215;-59
2021/06/25 03:24:56;;;;;;;6.47;5.80;;;;;;;;;;5013826;28;20454;-58
2021/06/25 03:27:22;;;;;;;7.40;6.57;;;;;;;;;;5013823;28;20706;-59
2021/06/25 03:29:47;;;;;;;6.70;6.20;;;;;;;;;;5016037;28;20218;-63
2021/06/25 03:32:13;;;;;;;9.10;6.47;;;;;;;;;;5017615;28;20313;-62
2021/06/25 03:34:38;;;;;;;7.10;6.50;;;;;;;;;;5017948;28;20578;-63
2021/06/25 03:37:04;;;;;;;7.63;6.97;;;;;;;;;;5017638;28;20693;-61
2021/06/25 03:39:29;;;;;;;7.23;6.63;;;;;;;;;;5015207;28;20218;-63
2021/06/25 03:41:54;;;;;;;7.47;6.50;;;;;;;;;;5020975;28;20328;-63
2021/06/25 03:44:20;;;;;;;7.60;6.80;;;;;;;;;;5028239;28;20213;-63
2021/06/25 03:46:45;;;;;;;8.60;7.37;;;;;;;;;;5024108;28;20222;-64
2021/06/25 03:49:10;;;;;;;7.30;6.70;;;;;;;;;;5027276;28;20233;-63
2021/06/25 03:51:35;;;;;;;8.00;7.30;;;;;;;;;;5032040;28;20297;-62
2021/06/25 03:54:02;;;;;;;9.73;8.77;;;;;;;;;;5027445;28;20576;-63
2021/06/25 03:56:27;;;;;;;9.80;8.80;;;;;;;;;;5022686;28;20237;-63
2021/06/25 03:58:53;;;;;;;9.17;8.40;;;;;;;;;;5027192;28;20476;-63
2021/06/25 04:01:19;;;;;;;9.40;8.60;;;;;;;;;;5030271;28;20226;-64
2021/06/25 04:03:45;;;;;;;9.03;8.23;;;;;;;;;;5026375;28;20241;-63
2021/06/25 04:06:10;;;;;;;9.13;8.33;;;;;;;;;;5023582;28;20544;-63
2021/06/25 04:08:36;;;;;;;8.70;7.90;;;;;;;;;;5030962;28;20233;-63
2021/06/25 04:11:03;;;;;;;8.07;7.03;;;;;;;;;;5023364;28;20223;-64
2021/06/25 04:13:28;;;;;;;8.63;7.93;;;;;;;;;;5032084;28;20233;-63
2021/06/25 04:15:57;;;;;;;9.60;7.20;;;;;;;;;;5023779;28;20461;-63
2021/06/25 04:18:23;;;;;;;7.10;6.60;;;;;;;;;;5027296;28;20297;-62
2021/06/25 04:20:49;;;;;;;7.93;7.27;;;;;;;;;;5030011;28;20472;-63
2021/06/25 04:23:14;;;;;;;8.33;7.53;;;;;;;;;;5025433;28;20535;-63
2021/06/25 04:25:40;;;;;;;7.50;6.90;;;;;;;;;;5023358;28;20544;-64
2021/06/25 04:28:05;;;;;;;8.83;7.97;;;;;;;;;;5027791;28;20728;-63
2021/06/25 04:30:31;;;;;;;9.03;8.13;;;;;;;;;;5030141;28;20221;-63
2021/06/25 04:33:01;;;;;;;7.03;6.13;;;;;;;;;;5025599;28;20303;-64
2021/06/25 04:35:30;;;;;;;8.77;8.00;;;;;;;;;;5023006;28;20462;-63
2021/06/25 04:37:56;;;;;;;8.13;7.33;;;;;;;;;;5027160;28;20544;-63
2021/06/25 04:40:21;;;;;;;8.23;7.43;;;;;;;;;;5019975;28;20996;-63
2021/06/25 04:42:47;;;;;;;9.30;8.40;;;;;;;;;;5030179;28;20730;-64
2021/06/25 04:45:13;;;;;;;8.50;7.60;;;;;;;;;;5026627;28;20232;-63
2021/06/25 04:47:43;;;;;;;11.10;7.90;;;;;;;;;;5022681;28;20544;-63
2021/06/25 04:50:09;;;;;;;9.17;8.37;;;;;;;;;;5023012;28;20552;-63
2021/06/25 04:52:34;;;;;;;10.40;7.43;;;;;;;;;;5027272;28;20572;-63
2021/06/25 04:54:59;;;;;;;8.27;7.53;;;;;;;;;;5024666;28;20465;-63
2021/06/25 04:57:25;;;;;;;8.27;7.00;;;;;;;;;;5029228;28;20233;-63
2021/06/25 04:59:50;;;;;;;9.80;8.57;;;;;;;;;;5027730;28;20240;-63
2021/06/25 05:02:15;;;;;;;9.70;8.77;;;;;;;;;;5022329;28;20225;-64
2021/06/25 05:04:40;;;;;;;8.57;7.70;;;;;;;;;;5024940;28;20730;-63
2021/06/25 05:07:06;;;;;;;35.03;31.27;;;;;;;;;;5028894;28;20226;-62
2021/06/25 05:09:31;;;;;;;24.33;21.33;;;;;;;;;;5016048;28;20317;-63
2021/06/25 05:11:56;;;;;;;15.90;14.30;;;;;;;;;;5029262;28;20565;-63
2021/06/25 05:14:21;;;;;;;28.50;25.57;;;;;;;;;;5015918;28;20314;-63
2021/06/25 05:16:47;;;;;;;31.93;27.17;;;;;;;;;;5029216;28;20550;-63
2021/06/25 05:19:12;;;;;;;28.00;25.13;;;;;;;;;;5026008;28;20218;-62
2021/06/25 05:21:37;;;;;;;40.40;34.97;;;;;;;;;;5022297;28;20328;-63
2021/06/25 05:24:03;;;;;;;34.43;29.43;;;;;;;;;;5025435;28;20229;-63
2021/06/25 05:26:29;;;;;;;31.40;26.27;;;;;;;;;;5028582;28;20473;-61
2021/06/25 05:28:54;;;;;;;27.03;22.80;;;;;;;;;;5026017;28;20464;-62
2021/06/25 05:31:19;;;;;;;17.90;15.57;;;;;;;;;;5021553;28;20226;-63
2021/06/25 05:33:45;;;;;;;22.10;19.80;;;;;;;;;;5025260;28;20230;-62
2021/06/25 05:36:10;;;;;;;21.27;18.97;;;;;;;;;;5028565;28;20230;-63
2021/06/25 05:38:35;;;;;;;17.77;15.90;;;;;;;;;;5025710;28;20221;-63
2021/06/25 05:41:00;;;;;;;21.43;19.30;;;;;;;;;;5013902;28;20234;-64
2021/06/25 05:43:26;;;;;;;16.77;15.03;;;;;;;;;;5025874;28;20222;-64
2021/06/25 05:45:51;;;;;;;15.00;13.50;;;;;;;;;;5025844;28;20670;-63
2021/06/25 05:48:16;;;;;;;15.17;13.57;;;;;;;;;;5029245;28;20234;-64
2021/06/25 05:50:42;;;;;;;12.20;11.00;;;;;;;;;;5025474;28;20217;-64
2021/06/25 05:53:07;;;;;;;17.60;15.70;;;;;;;;;;5028816;28;20227;-64
2021/06/25 05:55:32;;;;;;;12.53;9.97;;;;;;;;;;5025312;28;20607;-64
2021/06/25 05:57:57;;;;;;;10.30;9.20;;;;;;;;;;5021497;28;20233;-65
2021/06/25 06:00:23;;;;;;;9.43;8.17;;;;;;;;;;5024908;28;20555;-64
2021/06/25 06:02:48;;;;;;;10.83;9.47;;;;;;;;;;5017828;28;20581;-64
2021/06/25 06:05:14;;;;;;;9.83;8.83;;;;;;;;;;5016423;28;20227;-63
2021/06/25 06:07:39;;;;;;;10.40;9.37;;;;;;;;;;5025067;28;20223;-64
2021/06/25 06:10:06;;;;;;;9.93;8.73;;;;;;;;;;5026626;28;20233;-64
2021/06/25 06:12:31;;;;;;;18.80;15.70;;;;;;;;;;5027898;28;20287;-63
2021/06/25 06:14:57;;;;;;;14.07;12.67;;;;;;;;;;5023344;28;20464;-64
2021/06/25 06:17:22;;;;;;;15.53;13.90;;;;;;;;;;5020911;28;20650;-63
2021/06/25 06:19:52;;;;;;;13.33;11.93;;;;;;;;;;5026400;28;21160;-64
2021/06/25 06:33:22;;;;;;;9.20;8.33;;;;;;;;;;5022913;28;20468;-63
2021/06/25 06:35:49;;;;;;;9.50;8.50;;;;;;;;;;5027317;28;20552;-62
2021/06/25 06:38:14;;;;;;;11.63;9.40;;;;;;;;;;5027424;28;20461;-63
2021/06/25 06:40:39;;;;;;;10.40;9.53;;;;;;;;;;5006641;28;20477;-62
2021/06/25 06:43:05;;;;;;;11.50;10.37;;;;;;;;;;5022522;28;20221;-63
2021/06/25 06:45:30;;;;;;;9.77;8.77;;;;;;;;;;5021313;28;20360;-62
2021/06/25 06:47:55;;;;;;;12.43;9.80;;;;;;;;;;5031451;28;20536;-63
2021/06/25 06:50:20;;;;;;;9.57;8.70;;;;;;;;;;5021302;28;20654;-63
2021/06/25 06:52:48;;;;;;;10.50;8.80;;;;;;;;;;5032603;28;20233;-63
2021/06/25 06:55:25;;;;;;;8.00;7.20;;;;;;;;;;5022031;28;20526;-63
2021/06/25 06:57:51;;;;;;;9.53;7.83;;;;;;;;;;5019142;28;20461;-63
2021/06/25 07:00:16;;;;;;;8.83;8.03;;;;;;;;;;5025098;28;20766;-62
2021/06/25 07:02:43;;;;;;;9.30;7.10;;;;;;;;;;5026923;28;20653;-63
2021/06/25 07:05:10;;;;;;;8.37;7.20;;;;;;;;;;5022715;28;20213;-63
2021/06/25 07:07:35;;;;;;;9.73;8.80;;;;;;;;;;5016909;28;20508;-63
2021/06/25 07:10:03;;;;;;;13.87;9.10;;;;;;;;;;5022839;28;20960;-64
2021/06/25 07:12:28;;;;;;;9.63;8.63;;;;;;;;;;5020470;28;20218;-62
2021/06/25 07:14:54;;;;;;;10.33;9.00;;;;;;;;;;5024506;28;20798;-62
2021/06/25 07:17:19;;;;;;;10.50;7.77;;;;;;;;;;5027374;28;20480;-63
2021/06/25 07:19:46;;;;;;;9.87;8.87;;;;;;;;;;5020966;28;20242;-63
2021/06/25 07:22:11;;;;;;;9.07;7.47;;;;;;;;;;5020510;28;20215;-63
2021/06/25 07:24:37;;;;;;;7.90;7.20;;;;;;;;;;5024752;28;20470;-63
2021/06/25 07:27:03;;;;;;;9.30;8.37;;;;;;;;;;5027054;28;20312;-63
2021/06/25 07:29:28;;;;;;;7.20;6.57;;;;;;;;;;5022189;28;20225;-63
2021/06/25 07:31:53;;;;;;;8.77;7.60;;;;;;;;;;5019201;28;20468;-64
2021/06/25 07:34:19;;;;;;;8.37;7.67;;;;;;;;;;5025068;28;20254;-62
2021/06/25 07:36:44;;;;;;;9.47;8.47;;;;;;;;;;5026758;28;20214;-64
2021/06/25 07:39:10;;;;;;;9.93;7.70;;;;;;;;;;5020603;28;20301;-63
2021/06/25 07:41:36;;;;;;;10.63;7.57;;;;;;;;;;5015288;28;20218;-64
2021/06/25 07:44:02;;;;;;;10.00;9.00;;;;;;;;;;5024657;28;20495;-63
2021/06/25 07:46:27;;;;;;;10.77;8.90;;;;;;;;;;5015368;28;20461;-63
2021/06/25 07:48:53;;;;;;;8.97;8.07;;;;;;;;;;5025396;28;20245;-63
2021/06/25 07:51:18;;;;;;;8.37;7.57;;;;;;;;;;5026505;28;20231;-64
2021/06/25 07:53:43;;;;;;;8.43;7.67;;;;;;;;;;5025554;28;20233;-63
2021/06/25 07:56:09;;;;;;;10.20;8.20;;;;;;;;;;5026864;28;20233;-63
2021/06/25 07:58:34;;;;;;;9.40;8.10;;;;;;;;;;5020400;28;20536;-63
2021/06/25 08:00:59;;;;;;;8.40;7.17;;;;;;;;;;5018952;28;20233;-64
2021/06/25 08:03:24;;;;;;;8.87;8.07;;;;;;;;;;5026914;28;20306;-64
2021/06/25 08:05:50;;;;;;;7.50;6.90;;;;;;;;;;5025319;28;20228;-63
2021/06/25 08:08:15;;;;;;;9.67;7.20;;;;;;;;;;5013573;28;20229;-64
2021/06/25 08:10:41;;;;;;;9.23;7.73;;;;;;;;;;5025978;28;20229;-64
2021/06/25 08:13:08;;;;;;;7.97;7.17;;;;;;;;;;5019895;28;20222;-65
2021/06/25 08:15:33;;;;;;;9.37;7.20;;;;;;;;;;5021383;28;20466;-64
2021/06/25 08:17:58;;;;;;;6.53;6.00;;;;;;;;;;5034511;28;20449;-64
2021/06/25 08:20:24;;;;;;;8.27;7.47;;;;;;;;;;5025419;28;20659;-64
2021/06/25 08:22:49;;;;;;;7.97;7.17;;;;;;;;;;5029734;28;20265;-64
2021/06/25 08:25:14;;;;;;;8.80;7.50;;;;;;;;;;5028137;28;20225;-64
2021/06/25 08:27:40;;;;;;;8.40;7.60;;;;;;;;;;5023128;28;20228;-64
2021/06/25 08:30:06;;;;;;;8.00;7.30;;;;;;;;;;5025809;28;20230;-64
2021/06/25 08:32:31;;;;;;;8.50;7.73;;;;;;;;;;5029941;28;20218;-64
2021/06/25 08:34:56;;;;;;;8.10;7.30;;;;;;;;;;5027122;28;20459;-63
2021/06/25 08:37:21;;;;;;;8.63;7.73;;;;;;;;;;5023442;28;20228;-63
2021/06/25 08:39:47;;;;;;;7.20;6.60;;;;;;;;;;5024800;28;20650;-64
2021/06/25 08:42:13;;;;;;;6.80;6.10;;;;;;;;;;5011332;28;20220;-64
2021/06/25 08:44:40;;;;;;;8.90;8.00;;;;;;;;;;5022516;28;20230;-64
2021/06/25 08:47:07;;;;;;;8.10;7.37;;;;;;;;;;5034083;28;20457;-66
2021/06/25 08:49:36;;;;;;;7.97;7.27;;;;;;;;;;5023100;28;20465;-65
2021/06/25 08:52:04;;;;;;;7.13;6.53;;;;;;;;;;5035385;28;20463;-64
2021/06/25 08:54:29;;;;;;;8.90;8.00;;;;;;;;;;5022935;28;20473;-64
2021/06/25 08:56:56;;;;;;;7.63;6.87;;;;;;;;;;5028198;28;20608;-64
2021/06/25 08:59:22;;;;;;;9.30;8.27;;;;;;;;;;5029774;28;20221;-64
2021/06/25 09:01:48;;;;;;;11.20;8.10;;;;;;;;;;5023830;28;20610;-63
2021/06/25 09:04:29;;;;;;;9.37;8.57;;;;;;;;;;5022851;28;20214;-64
2021/06/25 09:06:55;;;;;;;7.60;7.00;;;;;;;;;;5025250;28;20797;-64
2021/06/25 09:09:21;;;;;;;8.13;7.47;;;;;;;;;;5019528;28;20479;-65
2021/06/25 09:11:46;;;;;;;10.77;6.90;;;;;;;;;;5025614;28;20226;-64
2021/06/25 09:14:11;;;;;;;7.90;7.00;;;;;;;;;;5028283;28;20685;-64
2021/06/25 09:16:38;;;;;;;10.87;8.37;;;;;;;;;;5025947;28;20361;-65
2021/06/25 09:19:06;;;;;;;7.90;7.20;;;;;;;;;;5022117;28;20213;-66
2021/06/25 09:21:38;;;;;;;7.63;6.83;;;;;;;;;;5024275;28;20466;-65
2021/06/25 09:24:21;;;;;;;9.57;7.77;;;;;;;;;;5028613;28;20933;-64
2021/06/25 09:26:47;;;;;;;9.53;7.20;;;;;;;;;;5028594;28;20457;-65
2021/06/25 09:29:15;;;;;;;8.60;7.03;;;;;;;;;;5022239;28;20457;-64
2021/06/25 09:31:41;;;;;;;8.70;7.90;;;;;;;;;;5022120;28;20465;-64
2021/06/25 09:34:08;;;;;;;9.57;8.60;;;;;;;;;;5028196;28;20737;-65
2021/06/25 09:36:38;;;;;;;8.43;7.47;;;;;;;;;;5028715;28;20221;-65
2021/06/25 09:39:05;;;;;;;8.20;7.50;;;;;;;;;;5022192;28;20464;-65
2021/06/25 09:41:30;;;;;;;7.90;7.20;;;;;;;;;;5003767;28;20458;-65
2021/06/25 09:44:00;;;;;;;9.27;8.57;;;;;;;;;;5027302;28;20469;-64
2021/06/25 09:46:33;;;;;;;9.60;8.70;;;;;;;;;;5027721;28;20215;-65
2021/06/25 09:49:05;;;;;;;9.63;7.87;;;;;;;;;;5025365;28;20467;-64
2021/06/25 09:51:30;;;;;;;7.33;6.73;;;;;;;;;;5031877;28;20868;-64
2021/06/25 09:54:13;;;;;;;8.93;8.13;;;;;;;;;;5024883;28;20472;-64
2021/06/25 09:57:29;;;;;;;9.40;8.50;;;;;;;;;;5028640;28;20226;-65
2021/06/25 10:02:21;;;;;;;9.23;8.43;;;;;;;;;;5021060;28;20884;-65
2021/06/25 10:04:49;;;;;;;8.77;6.53;;;;;;;;;;5027578;28;20841;-65
2021/06/25 10:07:16;;;;;;;7.43;6.73;;;;;;;;;;5024999;28;20461;-64
2021/06/25 10:09:43;;;;;;;7.50;6.70;;;;;;;;;;5027779;28;20467;-65
2021/06/25 10:12:10;;;;;;;7.17;6.47;;;;;;;;;;5027625;28;20514;-66
2021/06/25 10:14:36;;;;;;;5.23;4.83;;;;;;;;;;5021060;28;20471;-64
2021/06/25 10:17:04;;;;;;;6.50;5.90;;;;;;;;;;5021882;28;20781;-64
2021/06/25 10:19:30;;;;;;;7.00;6.37;;;;;;;;;;5021343;28;20577;-65
2021/06/25 10:21:56;;;;;;;6.43;5.90;;;;;;;;;;5021604;28;20457;-64
2021/06/25 10:24:21;;;;;;;7.23;6.60;;;;;;;;;;5027209;28;20672;-66
2021/06/25 10:26:47;;;;;;;7.80;7.10;;;;;;;;;;5026350;28;20297;-65
2021/06/25 10:29:12;;;;;;;7.97;7.27;;;;;;;;;;5020967;28;20261;-64
2021/06/25 10:31:37;;;;;;;7.17;6.47;;;;;;;;;;5020745;28;20600;-64
2021/06/25 10:34:03;;;;;;;6.60;5.80;;;;;;;;;;5010166;28;20604;-63
2021/06/25 10:36:31;;;;;;;7.63;7.00;;;;;;;;;;5025865;28;20630;-64
2021/06/25 10:39:08;;;;;;;8.60;7.20;;;;;;;;;;5019471;28;20230;-64
2021/06/25 10:41:57;;;;;;;7.50;6.90;;;;;;;;;;4997858;28;20533;-64
2021/06/25 10:44:43;;;;;;;7.40;6.87;;;;;;;;;;5022989;28;20488;-64
2021/06/25 10:47:24;;;;;;;8.93;8.03;;;;;;;;;;5010986;28;20460;-64
2021/06/25 10:49:58;;;;;;;8.50;7.07;;;;;;;;;;5020899;28;20465;-65
2021/06/25 10:52:24;;;;;;;9.70;6.80;;;;;;;;;;5022852;28;20479;-66
2021/06/25 10:55:08;;;;;;;6.97;6.27;;;;;;;;;;5027461;28;20497;-65
2021/06/25 10:57:39;;;;;;;8.60;7.70;;;;;;;;;;5026530;28;21413;-64
2021/06/25 11:00:06;;;;;;;6.30;5.67;;;;;;;;;;5007478;28;20465;-64
2021/06/25 11:02:43;;;;;;;7.40;6.70;;;;;;;;;;5019903;28;20496;-65
2021/06/25 11:05:26;;;;;;;6.80;6.30;;;;;;;;;;5025635;28;20537;-64
2021/06/25 11:08:15;;;;;;;7.07;6.47;;;;;;;;;;5026877;28;20511;-63
2021/06/25 11:10:54;;;;;;;6.57;5.90;;;;;;;;;;5012166;28;20461;-65
2021/06/25 11:13:22;;;;;;;7.87;7.13;;;;;;;;;;5024985;28;20480;-64
2021/06/25 11:15:52;;;;;;;6.70;6.10;;;;;;;;;;5028826;28;21001;-64
2021/06/25 11:18:27;;;;;;;6.00;5.40;;;;;;;;;;5024777;28;20485;-63
2021/06/25 11:21:04;;;;;;;5.40;4.90;;;;;;;;;;5026963;28;20945;-64
2021/06/25 11:23:39;;;;;;;8.33;7.47;;;;;;;;;;5025304;28;20456;-64
2021/06/25 11:26:13;;;;;;;6.53;6.03;;;;;;;;;;5020262;28;20467;-64
2021/06/25 11:28:42;;;;;;;6.20;5.60;;;;;;;;;;5032015;28;20454;-64
2021/06/25 11:31:17;;;;;;;5.13;4.73;;;;;;;;;;5020488;28;20533;-64
2021/06/25 11:33:58;;;;;;;5.47;4.97;;;;;;;;;;5019990;28;20458;-64
2021/06/25 11:36:33;;;;;;;5.40;5.00;;;;;;;;;;5023488;28;20457;-63
2021/06/25 11:39:11;;;;;;;5.80;5.30;;;;;;;;;;5026169;28;20834;-63
2021/06/25 11:41:57;;;;;;;5.90;5.40;;;;;;;;;;5001535;28;21000;-63
2021/06/25 11:44:31;;;;;;;5.23;4.70;;;;;;;;;;5020953;28;20466;-63
2021/06/25 11:46:59;;;;;;;5.00;4.50;;;;;;;;;;5030713;28;20460;-64
2021/06/25 11:49:27;;;;;;;4.40;4.00;;;;;;;;;;5020332;28;21052;-63
2021/06/25 11:51:52;;;;;;;5.63;4.70;;;;;;;;;;5036395;28;20460;-64
2021/06/25 11:54:20;;;;;;;5.30;4.80;;;;;;;;;;5023251;28;20466;-64
2021/06/25 11:56:47;;;;;;;5.07;4.67;;;;;;;;;;5010849;28;20548;-64
2021/06/25 11:59:13;;;;;;;4.57;4.20;;;;;;;;;;5023996;28;20461;-63
2021/06/25 12:01:58;;;;;;;6.40;5.07;;;;;;;;;;5023687;28;20460;-64
2021/06/25 12:04:34;;;;;;;4.90;4.37;;;;;;;;;;5023318;28;20894;-64
2021/06/25 12:07:00;;;;;;;4.87;4.37;;;;;;;;;;5026525;28;20464;-64
2021/06/25 12:09:43;;;;;;;5.97;4.90;;;;;;;;;;5020636;28;20474;-65
2021/06/25 12:12:10;;;;;;;5.23;4.83;;;;;;;;;;5023785;28;20225;-64
2021/06/25 12:14:43;;;;;;;7.20;5.13;;;;;;;;;;5025156;28;20469;-64
2021/06/25 12:17:09;;;;;;;5.10;4.43;;;;;;;;;;5030168;28;20479;-64
2021/06/25 12:19:34;;;;;;;5.30;4.90;;;;;;;;;;5022802;28;20468;-64
2021/06/25 12:22:09;;;;;;;4.63;3.93;;;;;;;;;;5023232;28;20650;-65
2021/06/25 12:24:52;;;;;;;5.57;5.07;;;;;;;;;;5019658;28;20295;-64
2021/06/25 12:27:18;;;;;;;4.63;3.80;;;;;;;;;;5030134;28;20457;-64
2021/06/25 12:29:45;;;;;;;4.97;4.60;;;;;;;;;;5026595;28;20931;-64
2021/06/25 12:32:20;;;;;;;4.93;4.53;;;;;;;;;;5023195;28;20237;-64
2021/06/25 12:34:46;;;;;;;5.43;4.53;;;;;;;;;;5016337;28;20747;-63
2021/06/25 12:37:12;;;;;;;5.00;4.53;;;;;;;;;;5023252;28;20544;-63
2021/06/25 12:39:42;;;;;;;5.90;5.40;;;;;;;;;;5022473;28;20588;-62
2021/06/25 12:42:07;;;;;;;5.47;4.97;;;;;;;;;;5009471;28;20827;-65
2021/06/25 12:44:32;;;;;;;5.87;5.37;;;;;;;;;;5023225;28;20468;-64
2021/06/25 12:47:04;;;;;;;5.20;4.80;;;;;;;;;;5033656;28;20222;-64
2021/06/25 12:49:34;;;;;;;5.27;4.50;;;;;;;;;;5022772;28;20226;-65
2021/06/25 12:52:00;;;;;;;4.73;4.33;;;;;;;;;;5035881;28;20460;-64
2021/06/25 12:54:31;;;;;;;4.70;4.20;;;;;;;;;;5021062;28;20484;-63
2021/06/25 12:56:57;;;;;;;7.97;4.20;;;;;;;;;;5027984;28;20230;-64
2021/06/25 12:59:24;;;;;;;5.17;4.73;;;;;;;;;;5028858;28;20483;-64
2021/06/25 13:01:51;;;;;;;4.60;4.20;;;;;;;;;;5023511;28;20376;-65
2021/06/25 13:04:30;;;;;;;5.77;5.27;;;;;;;;;;5022063;28;20617;-65
2021/06/25 13:07:00;;;;;;;5.03;4.20;;;;;;;;;;5012184;28;20539;-65
2021/06/25 13:09:27;;;;;;;5.30;4.90;;;;;;;;;;5028506;28;20473;-65
2021/06/25 13:11:53;;;;;;;6.00;4.77;;;;;;;;;;5023328;28;20456;-66
2021/06/25 13:14:41;;;;;;;6.47;4.80;;;;;;;;;;5021181;28;20500;-65
2021/06/25 13:17:07;;;;;;;5.07;4.57;;;;;;;;;;5024343;28;20976;-64
2021/06/25 13:19:41;;;;;;;8.60;5.03;;;;;;;;;;5020814;28;20543;-63
2021/06/25 13:22:25;;;;;;;5.40;4.90;;;;;;;;;;5024448;28;20555;-65
2021/06/25 13:25:20;;;;;;;4.37;3.97;;;;;;;;;;5015940;28;20497;-64
2021/06/25 13:27:45;;;;;;;7.30;4.47;;;;;;;;;;5017306;28;20512;-63
2021/06/25 13:30:21;;;;;;;8.57;4.70;;;;;;;;;;5014972;28;20468;-63
2021/06/25 13:33:00;;;;;;;7.40;5.03;;;;;;;;;;5015939;28;20304;-63
2021/06/25 13:35:55;;;;;;;4.53;4.20;;;;;;;;;;5015938;28;20821;-63
2021/06/25 13:38:24;;;;;;;5.10;4.60;;;;;;;;;;5000589;28;21084;-64
2021/06/25 13:40:58;;;;;;;4.53;4.10;;;;;;;;;;5014774;28;20504;-63
2021/06/25 13:43:26;;;;;;;5.80;4.90;;;;;;;;;;5014350;28;20522;-62
2021/06/25 13:46:23;;;;;;;5.60;4.73;;;;;;;;;;5015497;28;20482;-64
2021/06/25 13:49:08;;;;;;;9.00;6.00;;;;;;;;;;5013580;28;20970;-62
2021/06/25 13:51:36;;;;;;;6.50;4.47;;;;;;;;;;5014604;28;20545;-63
2021/06/25 13:54:19;;;;;;;6.00;5.60;;;;;;;;;;5015428;28;21008;-63
2021/06/25 13:56:52;;;;;;;5.23;4.73;;;;;;;;;;5015289;28;20812;-63
2021/06/25 13:59:17;;;;;;;6.20;4.80;;;;;;;;;;5015172;28;20549;-63
2021/06/25 14:01:48;;;;;;;5.27;4.83;;;;;;;;;;5014853;28;20541;-63
2021/06/25 14:04:21;;;;;;;4.70;4.30;;;;;;;;;;5015429;28;20214;-63
2021/06/25 14:06:57;;;;;;;5.23;4.83;;;;;;;;;;5014891;28;20454;-63
2021/06/25 14:09:25;;;;;;;5.87;5.40;;;;;;;;;;4995668;28;20549;-62
2021/06/25 14:11:50;;;;;;;5.13;4.37;;;;;;;;;;4995415;28;20447;-62
2021/06/25 14:14:16;;;;;;;5.40;5.00;;;;;;;;;;4994618;28;20537;-63
2021/06/25 14:16:42;;;;;;;4.93;4.43;;;;;;;;;;4995240;28;20635;-63
2021/06/25 14:19:10;;;;;;;4.77;4.37;;;;;;;;;;4995533;28;20223;-63
2021/06/25 14:21:38;;;;;;;5.77;4.73;;;;;;;;;;4994819;28;20565;-62
2021/06/25 14:24:05;;;;;;;5.27;4.70;;;;;;;;;;4995170;28;20541;-62
2021/06/25 14:26:31;;;;;;;5.27;4.77;;;;;;;;;;4994842;28;20914;-63
2021/06/25 14:28:58;;;;;;;4.43;4.03;;;;;;;;;;4995134;28;20490;-63
2021/06/25 14:31:24;;;;;;;7.13;5.30;;;;;;;;;;4995398;28;20469;-63
2021/06/25 14:33:50;;;;;;;6.07;4.20;;;;;;;;;;4994613;28;20451;-64
2021/06/25 14:36:15;;;;;;;6.03;4.23;;;;;;;;;;4995090;28;20766;-63
2021/06/25 14:38:41;;;;;;;4.53;4.13;;;;;;;;;;4994759;28;20235;-62
2021/06/25 14:41:07;;;;;;;5.20;4.43;;;;;;;;;;5012058;28;20229;-63
2021/06/25 14:43:33;;;;;;;5.03;4.53;;;;;;;;;;5014024;28;20233;-62
2021/06/25 14:46:01;;;;;;;4.90;4.50;;;;;;;;;;5014461;28;20449;-63
2021/06/25 14:48:26;;;;;;;4.23;3.93;;;;;;;;;;5014435;28;20548;-62
2021/06/25 14:50:52;;;;;;;4.53;4.23;;;;;;;;;;5013681;28;20475;-63
2021/06/25 14:53:17;;;;;;;4.37;4.00;;;;;;;;;;5014279;28;20289;-63
2021/06/25 14:55:43;;;;;;;6.67;4.50;;;;;;;;;;5014029;28;20222;-62
2021/06/25 14:58:09;;;;;;;5.80;5.30;;;;;;;;;;5013896;28;20642;-63